Time;durP1;ratioP1;P1;durP2;ratioP2;P2;SDS_P1;SDS_P2;PMS_P1;PMS_P2;Temp;Humidity;BMP_temperature;BMP_pressure;BME280_temperature;BME280_humidity;BME280_pressure;Samples;Min_cycle;Max_cycle;Signal;HPM_P1;HPM_P2
2021/01/05 00:00:07;;;;;;;43.45;16.50;;;1.20;99.90;;;;;;5037139;28;20029;-49
2021/01/05 00:02:33;;;;;;;50.85;17.73;;;1.20;99.90;;;;;;5036924;28;20048;-46
2021/01/05 00:04:58;;;;;;;46.53;14.50;;;1.20;99.90;;;;;;5036205;28;20021;-48
2021/01/05 00:07:24;;;;;;;39.10;14.52;;;1.20;99.90;;;;;;5044347;28;20030;-46
2021/01/05 00:09:49;;;;;;;47.53;17.23;;;1.20;99.90;;;;;;5049999;28;20025;-46
2021/01/05 00:12:16;;;;;;;52.95;18.08;;;1.30;99.90;;;;;;5033579;28;20129;-46
2021/01/05 00:14:44;;;;;;;64.47;19.73;;;1.30;99.90;;;;;;5039310;28;20032;-47
2021/01/05 00:17:11;;;;;;;58.40;18.42;;;1.20;99.90;;;;;;5039776;28;20022;-46
2021/01/05 00:19:36;;;;;;;48.65;17.48;;;1.20;99.90;;;;;;5035393;28;20037;-46
2021/01/05 00:22:03;;;;;;;47.53;15.07;;;1.20;99.90;;;;;;5042299;28;20482;-46
2021/01/05 00:24:28;;;;;;;56.20;19.08;;;1.20;99.90;;;;;;5051519;28;20025;-46
2021/01/05 00:26:54;;;;;;;44.83;16.75;;;1.20;99.90;;;;;;5032842;28;20120;-49
2021/01/05 00:29:20;;;;;;;49.78;17.02;;;1.30;99.90;;;;;;5031674;28;20496;-46
2021/01/05 00:31:45;;;;;;;50.35;17.25;;;1.30;99.90;;;;;;5033407;28;20549;-51
2021/01/05 00:34:11;;;;;;;48.45;18.45;;;1.30;99.90;;;;;;5035132;28;20517;-47
2021/01/05 00:36:37;;;;;;;59.97;21.13;;;1.30;99.90;;;;;;5032318;28;20101;-47
2021/01/05 00:39:06;;;;;;;47.95;14.70;;;1.30;99.90;;;;;;5042709;28;20060;-46
2021/01/05 00:41:33;;;;;;;57.03;19.45;;;1.30;99.90;;;;;;5041191;28;20396;-44
2021/01/05 00:43:59;;;;;;;56.80;18.88;;;1.30;99.90;;;;;;5038724;28;20025;-46
2021/01/05 00:46:25;;;;;;;45.03;16.27;;;1.30;99.90;;;;;;5042895;28;20521;-46
2021/01/05 00:48:51;;;;;;;50.60;17.20;;;1.30;99.90;;;;;;5039054;28;20053;-47
2021/01/05 00:51:16;;;;;;;48.72;14.98;;;1.30;99.90;;;;;;5041037;28;20049;-46
2021/01/05 00:53:42;;;;;;;49.53;16.75;;;1.30;99.90;;;;;;5042519;28;20104;-48
2021/01/05 00:56:08;;;;;;;41.40;13.15;;;1.30;99.90;;;;;;5033380;28;20450;-45
2021/01/05 00:58:33;;;;;;;45.58;18.35;;;1.30;99.90;;;;;;5040353;28;20033;-48
2021/01/05 01:00:59;;;;;;;54.72;15.90;;;1.30;99.90;;;;;;5036639;28;20029;-46
2021/01/05 01:03:25;;;;;;;47.45;14.68;;;1.30;99.90;;;;;;5033233;28;20025;-49
2021/01/05 01:05:51;;;;;;;40.58;14.13;;;1.30;99.90;;;;;;5033622;28;20087;-48
2021/01/05 01:08:21;;;;;;;48.72;18.15;;;1.30;99.90;;;;;;5036536;28;20498;-51
2021/01/05 01:10:47;;;;;;;44.90;16.55;;;1.30;99.90;;;;;;5038624;28;20060;-47
2021/01/05 01:13:13;;;;;;;60.88;20.90;;;1.30;99.90;;;;;;5032988;28;20078;-51
2021/01/05 01:15:39;;;;;;;56.70;20.70;;;1.30;99.90;;;;;;5032949;28;20438;-46
2021/01/05 01:18:05;;;;;;;47.10;19.00;;;1.30;99.90;;;;;;5033837;28;20029;-47
2021/01/05 01:20:32;;;;;;;48.42;15.25;;;1.30;99.90;;;;;;5034988;28;20033;-47
2021/01/05 01:22:57;;;;;;;50.38;17.88;;;1.30;99.90;;;;;;5039710;28;20501;-48
2021/01/05 01:25:23;;;;;;;47.72;17.50;;;1.30;99.90;;;;;;5032601;28;20017;-47
2021/01/05 01:27:49;;;;;;;57.47;17.38;;;1.30;99.90;;;;;;5037359;28;20080;-46
2021/01/05 01:30:15;;;;;;;60.35;19.88;;;1.30;99.90;;;;;;5036487;28;20026;-47
2021/01/05 01:32:41;;;;;;;52.00;16.35;;;1.30;99.90;;;;;;5037324;28;20032;-49
2021/01/05 01:35:07;;;;;;;46.60;16.63;;;1.30;99.90;;;;;;5032862;28;20034;-49
2021/01/05 01:37:33;;;;;;;54.05;16.55;;;1.30;99.90;;;;;;5039467;28;20627;-46
2021/01/05 01:39:59;;;;;;;52.35;17.60;;;1.30;99.90;;;;;;5037883;28;20037;-49
2021/01/05 01:42:25;;;;;;;41.50;17.20;;;1.30;99.90;;;;;;5036253;28;20462;-49
2021/01/05 01:44:51;;;;;;;61.83;23.00;;;1.30;99.90;;;;;;5032450;28;20017;-48
2021/01/05 01:47:20;;;;;;;45.90;16.30;;;1.30;99.90;;;;;;5032470;28;20113;-46
2021/01/05 01:49:48;;;;;;;48.63;19.48;;;1.30;99.90;;;;;;5041863;28;20029;-46
2021/01/05 01:52:21;;;;;;;63.90;22.00;;;1.30;99.90;;;;;;5038589;28;20057;-49
2021/01/05 01:55:11;;;;;;;53.70;19.85;;;1.30;99.90;;;;;;5040719;28;20067;-47
2021/01/05 01:57:45;;;;;;;48.47;16.58;;;1.20;99.90;;;;;;5036739;28;20051;-48
2021/01/05 02:00:21;;;;;;;48.58;17.65;;;1.30;99.90;;;;;;5041968;28;20441;-46
2021/01/05 02:03:01;;;;;;;;;;;1.30;99.90;;;;;;5034480;28;20454;-46
2021/01/05 02:05:39;;;;;;;62.38;20.15;;;1.20;99.90;;;;;;5034024;28;19940;-44
2021/01/05 02:08:27;;;;;;;52.38;19.08;;;1.20;99.90;;;;;;5033541;28;20045;-47
2021/01/05 02:11:08;;;;;;;62.72;19.58;;;1.20;99.90;;;;;;5037106;28;20040;-51
2021/01/05 02:13:58;;;;;;;44.17;14.25;;;1.20;99.90;;;;;;5030650;28;20112;-48
2021/01/05 02:16:58;;;;;;;50.28;17.70;;;1.30;99.90;;;;;;5040688;28;20083;-47
2021/01/05 02:19:31;;;;;;;57.13;17.80;;;1.30;99.90;;;;;;5032281;28;20421;-47
2021/01/05 02:22:09;;;;;;;55.63;19.08;;;1.30;99.90;;;;;;5032300;28;20060;-47
2021/01/05 02:24:52;;;;;;;51.53;16.83;;;1.30;99.90;;;;;;5035527;28;20071;-46
2021/01/05 02:27:17;;;;;;;49.30;17.42;;;1.30;99.90;;;;;;5040150;28;20025;-47
2021/01/05 02:29:51;;;;;;;46.50;14.95;;;1.30;99.90;;;;;;5032758;28;20521;-50
2021/01/05 02:32:26;;;;;;;50.70;17.00;;;1.30;99.90;;;;;;5035682;28;20060;-44
2021/01/05 02:35:19;;;;;;;47.55;18.33;;;1.20;99.90;;;;;;5038955;28;20033;-47
2021/01/05 02:38:14;;;;;;;49.47;17.60;;;1.20;99.90;;;;;;5034597;28;20147;-45
2021/01/05 02:41:07;;;;;;;57.45;20.35;;;1.20;99.90;;;;;;5033247;28;20446;-45
2021/01/05 02:44:09;;;;;;;49.75;17.60;;;1.20;99.90;;;;;;5007845;28;20049;-45
2021/01/05 02:47:01;;;;;;;45.15;17.73;;;1.20;99.90;;;;;;5027194;28;20060;-46
2021/01/05 02:49:46;;;;;;;49.35;18.90;;;1.30;99.90;;;;;;5033582;28;20029;-48
2021/01/05 02:52:37;;;;;;;48.92;15.38;;;1.20;99.90;;;;;;5031124;28;20041;-48
2021/01/05 02:55:30;;;;;;;48.83;16.38;;;1.20;99.90;;;;;;5038185;28;20033;-46
2021/01/05 02:58:17;;;;;;;54.00;17.48;;;1.20;99.90;;;;;;5031298;28;20041;-46
2021/01/05 03:00:50;;;;;;;48.55;18.40;;;1.30;99.90;;;;;;5032893;28;20029;-44
2021/01/05 03:03:31;;;;;;;52.80;16.85;;;1.20;99.90;;;;;;5030908;28;20029;-45
2021/01/05 03:06:21;;;;;;;48.80;19.30;;;1.30;99.90;;;;;;5032216;28;20021;-47
2021/01/05 03:09:01;;;;;;;41.85;17.15;;;1.30;99.90;;;;;;5038195;28;20026;-45
2021/01/05 03:11:57;;;;;;;42.00;16.33;;;1.30;99.90;;;;;;5038555;28;20033;-46
2021/01/05 03:14:30;;;;;;;59.28;19.27;;;1.20;99.90;;;;;;5040880;28;20030;-47
2021/01/05 03:17:17;;;;;;;43.97;16.08;;;1.30;99.90;;;;;;5041713;28;20080;-50
2021/01/05 03:19:46;;;;;;;52.38;19.27;;;1.20;99.90;;;;;;5042312;28;20036;-48
2021/01/05 03:22:16;;;;;;;47.83;17.65;;;1.20;99.90;;;;;;5041543;28;20018;-45
2021/01/05 03:24:44;;;;;;;41.15;15.10;;;1.20;99.90;;;;;;5035202;28;20116;-50
2021/01/05 03:27:14;;;;;;;47.72;14.45;;;1.20;99.90;;;;;;5040755;28;20040;-44
2021/01/05 03:29:39;;;;;;;43.90;16.00;;;1.20;99.90;;;;;;5042800;28;20039;-48
2021/01/05 03:32:08;;;;;;;46.22;17.23;;;1.20;99.90;;;;;;5042964;28;20108;-46
2021/01/05 03:34:34;;;;;;;45.20;16.42;;;1.20;99.90;;;;;;5040722;28;20105;-46
2021/01/05 03:37:00;;;;;;;38.17;15.27;;;1.20;99.90;;;;;;5037731;28;20480;-46
2021/01/05 03:39:25;;;;;;;42.78;15.98;;;1.30;99.90;;;;;;5041086;28;20021;-45
2021/01/05 03:41:51;;;;;;;40.63;15.07;;;1.30;99.90;;;;;;5043326;28;20075;-48
2021/01/05 03:44:16;;;;;;;34.55;12.80;;;1.30;99.90;;;;;;5033575;28;20042;-46
2021/01/05 03:46:42;;;;;;;53.47;17.70;;;1.30;99.90;;;;;;5034906;28;20033;-46
2021/01/05 03:49:07;;;;;;;40.03;16.27;;;1.30;99.90;;;;;;5038380;28;20572;-48
2021/01/05 03:51:34;;;;;;;54.45;21.33;;;1.30;99.90;;;;;;5045294;28;20508;-46
2021/01/05 03:53:59;;;;;;;42.75;16.83;;;1.20;99.90;;;;;;5034282;28;20072;-48
2021/01/05 03:56:25;;;;;;;47.25;18.88;;;1.20;99.90;;;;;;5042849;28;20033;-48
2021/01/05 03:58:50;;;;;;;47.60;19.85;;;1.20;99.90;;;;;;5037449;28;20033;-47
2021/01/05 04:01:16;;;;;;;55.33;20.10;;;1.20;99.90;;;;;;5042571;28;20036;-50
2021/01/05 04:03:42;;;;;;;46.58;19.35;;;1.20;99.90;;;;;;5038255;28;20045;-47
2021/01/05 04:06:08;;;;;;;40.58;14.50;;;1.20;99.90;;;;;;5037693;28;20025;-47
2021/01/05 04:08:34;;;;;;;46.03;19.23;;;1.20;99.90;;;;;;5034898;28;20057;-48
2021/01/05 04:11:00;;;;;;;44.38;18.13;;;1.20;99.90;;;;;;5035590;28;20064;-47
2021/01/05 04:13:25;;;;;;;47.35;20.00;;;1.20;99.90;;;;;;5032972;28;20035;-48
2021/01/05 04:15:51;;;;;;;48.22;18.83;;;1.20;99.90;;;;;;5036633;28;20033;-53
2021/01/05 04:18:17;;;;;;;40.08;15.23;;;1.20;99.90;;;;;;5037385;28;20033;-47
2021/01/05 04:20:42;;;;;;;32.85;12.68;;;1.20;99.90;;;;;;5039988;28;20496;-45
2021/01/05 04:23:08;;;;;;;44.42;18.40;;;1.20;99.90;;;;;;5035556;28;20021;-48
2021/01/05 04:25:34;;;;;;;41.72;17.05;;;1.20;99.90;;;;;;5036067;28;20086;-47
2021/01/05 04:27:59;;;;;;;39.25;16.55;;;1.20;99.90;;;;;;5038928;28;20083;-48
2021/01/05 04:30:29;;;;;;;44.90;19.33;;;1.20;99.90;;;;;;5036785;28;20075;-47
2021/01/05 04:32:58;;;;;;;41.42;16.83;;;1.20;99.90;;;;;;5035310;28;20394;-49
2021/01/05 04:35:25;;;;;;;36.05;15.48;;;1.20;99.90;;;;;;5040620;28;20025;-50
2021/01/05 04:37:51;;;;;;;34.42;14.95;;;1.20;99.90;;;;;;5046236;28;20025;-52
2021/01/05 04:40:28;;;;;;;36.95;14.13;;;1.20;99.90;;;;;;5043406;28;20040;-48
2021/01/05 04:43:31;;;;;;;31.45;12.68;;;1.20;99.90;;;;;;5032169;28;20063;-49
2021/01/05 04:46:14;;;;;;;33.20;13.98;;;1.20;99.90;;;;;;5039894;28;20073;-49
2021/01/05 04:48:57;;;;;;;39.17;16.63;;;1.20;99.90;;;;;;5037334;28;20049;-46
2021/01/05 04:51:48;;;;;;;29.73;13.70;;;1.30;99.90;;;;;;5035582;28;20132;-48
2021/01/05 04:54:36;;;;;;;36.65;15.77;;;1.20;99.90;;;;;;5039952;28;20394;-48
2021/01/05 04:57:12;;;;;;;31.13;12.23;;;1.20;99.90;;;;;;5038126;28;20041;-47
2021/01/05 04:59:43;;;;;;;29.98;12.30;;;1.20;99.90;;;;;;5035631;28;20494;-47
2021/01/05 05:02:29;;;;;;;30.35;13.90;;;1.30;99.90;;;;;;5042388;28;20078;-47
2021/01/05 05:05:24;;;;;;;32.83;13.75;;;1.20;99.90;;;;;;5033395;28;20029;-47
2021/01/05 05:08:11;;;;;;;35.08;16.92;;;1.30;99.90;;;;;;5036775;28;20199;-46
2021/01/05 05:10:46;;;;;;;47.03;19.90;;;1.30;99.90;;;;;;5037741;28;20029;-50
2021/01/05 05:13:12;;;;;;;30.45;13.90;;;1.20;99.90;;;;;;5034481;28;20029;-46
2021/01/05 05:15:40;;;;;;;27.42;12.88;;;1.30;99.90;;;;;;5045054;28;20025;-52
2021/01/05 05:18:44;;;;;;;37.28;14.07;;;1.30;99.90;;;;;;5040276;28;20071;-47
2021/01/05 05:21:29;;;;;;;25.13;12.27;;;1.30;99.90;;;;;;5034754;28;20071;-45
2021/01/05 05:24:22;;;;;;;39.95;16.95;;;1.30;99.90;;;;;;5042501;28;20048;-47
2021/01/05 05:26:59;;;;;;;32.85;14.77;;;1.30;99.90;;;;;;5033795;28;20029;-46
2021/01/05 05:29:51;;;;;;;32.03;15.05;;;1.30;99.90;;;;;;5032320;28;20064;-46
2021/01/05 05:32:56;;;;;;;25.70;12.20;;;1.30;99.90;;;;;;5035927;28;20491;-48
2021/01/05 05:35:43;;;;;;;27.65;13.40;;;1.20;99.90;;;;;;5039869;28;20481;-46
2021/01/05 05:38:28;;;;;;;33.60;16.67;;;1.30;99.90;;;;;;5038705;28;20029;-47
2021/01/05 05:41:34;;;;;;;27.58;14.38;;;1.20;99.90;;;;;;5041214;28;20021;-47
2021/01/05 05:44:22;;;;;;;30.77;15.38;;;1.20;99.90;;;;;;5034154;28;20502;-50
2021/01/05 05:47:07;;;;;;;30.40;14.43;;;1.20;99.90;;;;;;5032616;28;20124;-47
2021/01/05 05:49:40;;;;;;;29.30;12.77;;;1.20;99.90;;;;;;5039159;28;20056;-48
2021/01/05 05:52:25;;;;;;;30.08;13.63;;;1.20;99.90;;;;;;5034439;28;20124;-46
2021/01/05 05:54:53;;;;;;;28.37;13.87;;;1.20;99.90;;;;;;5034412;28;20032;-47
2021/01/05 05:57:45;;;;;;;28.23;12.20;;;1.20;99.90;;;;;;5035694;28;21017;-46
2021/01/05 06:00:21;;;;;;;27.25;13.35;;;1.20;99.90;;;;;;5040127;28;20039;-47
2021/01/05 06:02:47;;;;;;;36.85;16.58;;;1.20;99.90;;;;;;5038384;28;20078;-48
2021/01/05 06:05:20;;;;;;;31.42;14.35;;;1.30;99.90;;;;;;5040804;28;20037;-45
2021/01/05 06:07:45;;;;;;;30.58;14.77;;;1.20;99.90;;;;;;5039074;28;20029;-49
2021/01/05 06:10:11;;;;;;;36.65;16.23;;;1.20;99.90;;;;;;5039350;28;20098;-51
2021/01/05 06:12:37;;;;;;;32.60;15.20;;;1.20;99.90;;;;;;5030927;28;20474;-51
2021/01/05 06:15:03;;;;;;;28.83;13.27;;;1.20;99.90;;;;;;5033247;28;20025;-47
2021/01/05 06:17:28;;;;;;;30.35;12.35;;;1.20;99.90;;;;;;5035792;28;20037;-46
2021/01/05 06:19:54;;;;;;;26.52;12.32;;;1.20;99.90;;;;;;5038092;28;20042;-50
2021/01/05 06:22:19;;;;;;;27.25;13.02;;;1.20;99.90;;;;;;5031633;28;20382;-46
2021/01/05 06:24:45;;;;;;;32.67;14.45;;;1.20;99.90;;;;;;5041574;28;20021;-47
2021/01/05 06:27:10;;;;;;;26.63;13.45;;;1.30;99.90;;;;;;5036898;28;20045;-47
2021/01/05 06:29:36;;;;;;;28.40;13.75;;;1.30;99.90;;;;;;5041166;28;20379;-47
2021/01/05 06:32:01;;;;;;;26.65;12.93;;;1.30;99.90;;;;;;5043525;28;20059;-46
2021/01/05 06:34:26;;;;;;;29.15;13.93;;;1.30;99.90;;;;;;5035334;28;20066;-47
2021/01/05 06:36:52;;;;;;;28.70;14.25;;;1.30;99.90;;;;;;5043248;28;20040;-46
2021/01/05 06:39:17;;;;;;;31.70;14.70;;;1.30;99.90;;;;;;5037850;28;20143;-50
2021/01/05 06:41:43;;;;;;;31.42;12.85;;;1.30;99.90;;;;;;5045575;28;20041;-47
2021/01/05 06:44:08;;;;;;;27.17;12.52;;;1.30;99.90;;;;;;5033792;28;20109;-50
2021/01/05 06:46:34;;;;;;;28.98;14.10;;;1.30;99.90;;;;;;5036130;28;20034;-50
2021/01/05 06:48:59;;;;;;;30.48;14.60;;;1.30;99.90;;;;;;5038543;28;20043;-48
2021/01/05 06:51:25;;;;;;;30.90;13.40;;;1.30;99.90;;;;;;5044906;28;20484;-46
2021/01/05 06:53:50;;;;;;;32.50;14.80;;;1.30;99.90;;;;;;5034840;28;20033;-46
2021/01/05 06:56:16;;;;;;;31.70;14.50;;;1.30;99.90;;;;;;5038625;28;20120;-49
2021/01/05 06:58:41;;;;;;;31.88;13.20;;;1.30;99.90;;;;;;5040266;28;20499;-48
2021/01/05 07:01:07;;;;;;;26.63;12.85;;;1.30;99.90;;;;;;5040221;28;20025;-49
2021/01/05 07:03:32;;;;;;;34.05;16.63;;;1.30;99.90;;;;;;5033893;28;20155;-48
2021/01/05 07:05:57;;;;;;;32.83;12.80;;;1.30;99.90;;;;;;5034620;28;20044;-48
2021/01/05 07:08:23;;;;;;;30.42;14.05;;;1.30;99.90;;;;;;5034410;28;20498;-50
2021/01/05 07:10:48;;;;;;;35.00;14.23;;;1.30;99.90;;;;;;5045583;28;20032;-48
2021/01/05 07:13:14;;;;;;;29.83;12.35;;;1.40;99.90;;;;;;5034067;28;20040;-50
2021/01/05 07:15:40;;;;;;;27.30;12.18;;;1.30;99.90;;;;;;5038727;28;20037;-48
2021/01/05 07:18:05;;;;;;;28.42;13.18;;;1.40;99.90;;;;;;5032247;28;20481;-47
2021/01/05 07:20:31;;;;;;;42.00;18.35;;;1.30;99.90;;;;;;5036159;28;20038;-50
2021/01/05 07:22:56;;;;;;;28.63;11.27;;;1.40;99.90;;;;;;5034372;28;20036;-48
2021/01/05 07:25:21;;;;;;;33.75;12.98;;;1.40;99.90;;;;;;5037949;28;20033;-47
2021/01/05 07:27:47;;;;;;;28.48;12.40;;;1.40;99.90;;;;;;5036663;28;20602;-49
2021/01/05 07:30:13;;;;;;;33.67;13.38;;;1.40;99.90;;;;;;5037853;28;20135;-47
2021/01/05 07:32:38;;;;;;;37.38;15.68;;;1.40;99.90;;;;;;5043026;28;20030;-46
2021/01/05 07:35:05;;;;;;;33.95;14.18;;;1.50;99.90;;;;;;5036007;28;20029;-47
2021/01/05 07:37:36;;;;;;;30.83;14.13;;;1.50;99.90;;;;;;5042547;28;20046;-46
2021/01/05 07:40:02;;;;;;;40.88;17.02;;;1.50;99.90;;;;;;5046525;28;20049;-48
2021/01/05 07:42:30;;;;;;;38.50;15.93;;;1.50;99.90;;;;;;5036359;28;20021;-51
2021/01/05 07:45:01;;;;;;;31.38;14.23;;;1.50;99.90;;;;;;5038556;28;20082;-48
2021/01/05 07:47:32;;;;;;;30.33;12.82;;;1.50;99.90;;;;;;5037019;28;20131;-47
2021/01/05 07:49:57;;;;;;;36.53;17.15;;;1.60;99.90;;;;;;5037036;28;20029;-48
2021/01/05 07:52:37;;;;;;;29.42;12.18;;;1.60;99.90;;;;;;5030956;28;20603;-47
2021/01/05 07:55:20;;;;;;;35.10;17.00;;;1.60;99.90;;;;;;5036376;28;20509;-49
2021/01/05 07:57:48;;;;;;;37.03;16.27;;;1.60;99.90;;;;;;5031529;28;20129;-47
2021/01/05 08:00:20;;;;;;;28.45;13.02;;;1.60;99.90;;;;;;5037222;28;20040;-51
2021/01/05 08:02:46;;;;;;;28.65;13.10;;;1.60;99.90;;;;;;5047307;28;20108;-47
2021/01/05 08:05:14;;;;;;;30.40;13.27;;;1.70;99.90;;;;;;5038907;28;20123;-49
2021/01/05 08:07:40;;;;;;;31.50;13.95;;;1.70;99.90;;;;;;5048500;28;20033;-47
2021/01/05 08:10:06;;;;;;;40.50;15.27;;;1.70;99.90;;;;;;5045129;28;20029;-50
2021/01/05 08:12:32;;;;;;;38.15;16.02;;;1.70;99.90;;;;;;5042223;28;20025;-47
2021/01/05 08:14:57;;;;;;;35.80;14.30;;;1.70;99.90;;;;;;5035916;28;20424;-43
2021/01/05 08:17:23;;;;;;;33.40;14.45;;;1.80;99.90;;;;;;5037803;28;20036;-43
2021/01/05 08:19:48;;;;;;;31.52;13.65;;;1.80;99.90;;;;;;5038613;28;20037;-46
2021/01/05 08:22:15;;;;;;;42.05;17.95;;;1.90;99.90;;;;;;5037843;28;20454;-45
2021/01/05 08:24:41;;;;;;;29.55;14.18;;;1.90;99.90;;;;;;5037071;28;20025;-46
2021/01/05 08:27:11;;;;;;;34.50;14.32;;;1.90;99.90;;;;;;5040788;28;20374;-47
2021/01/05 08:29:37;;;;;;;37.75;17.35;;;2.00;99.90;;;;;;5039509;28;20056;-48
2021/01/05 08:32:04;;;;;;;31.58;14.13;;;1.90;99.90;;;;;;5038468;28;20029;-46
2021/01/05 08:34:29;;;;;;;25.50;11.38;;;1.90;99.90;;;;;;5038898;28;20029;-47
2021/01/05 08:36:58;;;;;;;32.22;14.73;;;1.80;99.90;;;;;;5040436;28;20032;-49
2021/01/05 08:39:24;;;;;;;42.95;15.95;;;1.90;99.90;;;;;;5041144;28;20036;-46
2021/01/05 08:41:53;;;;;;;31.90;12.20;;;1.90;99.90;;;;;;5032735;28;20025;-49
2021/01/05 08:44:19;;;;;;;34.33;14.05;;;1.90;99.90;;;;;;5031847;28;20080;-47
2021/01/05 08:46:44;;;;;;;31.27;12.85;;;1.90;99.90;;;;;;5037270;28;20422;-46
2021/01/05 08:49:10;;;;;;;37.97;15.63;;;1.90;99.90;;;;;;5034391;28;20033;-45
2021/01/05 08:51:35;;;;;;;34.17;13.70;;;1.90;99.90;;;;;;5039588;28;20057;-44
2021/01/05 08:54:01;;;;;;;28.67;12.88;;;1.90;99.90;;;;;;5066921;28;20025;-46
2021/01/05 08:56:28;;;;;;;30.77;13.68;;;1.90;99.90;;;;;;5033660;28;20107;-48
2021/01/05 08:58:54;;;;;;;31.67;13.55;;;1.90;99.90;;;;;;5037256;28;20025;-43
2021/01/05 09:01:20;;;;;;;31.20;14.48;;;1.90;99.90;;;;;;5036434;28;20069;-42
2021/01/05 09:03:45;;;;;;;36.20;14.82;;;1.90;99.90;;;;;;5037985;28;20037;-46
2021/01/05 09:06:12;;;;;;;31.88;14.55;;;1.90;99.90;;;;;;5037078;28;20018;-44
2021/01/05 09:08:38;;;;;;;35.35;14.68;;;1.90;99.90;;;;;;5034861;28;20536;-43
2021/01/05 09:11:15;;;;;;;33.42;13.40;;;1.90;99.90;;;;;;5045573;28;20033;-45
2021/01/05 09:13:40;;;;;;;37.63;13.70;;;1.90;99.90;;;;;;5031577;28;20136;-44
2021/01/05 09:16:06;;;;;;;31.67;11.90;;;1.90;99.90;;;;;;5036397;28;20037;-47
2021/01/05 09:18:31;;;;;;;27.80;13.43;;;1.90;99.90;;;;;;5040550;28;20506;-45
2021/01/05 09:20:57;;;;;;;38.03;14.70;;;2.00;99.90;;;;;;5040388;28;20068;-50
2021/01/05 09:23:24;;;;;;;37.55;13.65;;;2.00;99.90;;;;;;5034172;28;20100;-44
2021/01/05 09:25:54;;;;;;;25.30;11.05;;;2.00;99.90;;;;;;5045835;28;20112;-50
2021/01/05 09:28:21;;;;;;;31.52;15.07;;;2.00;99.90;;;;;;5036127;28;20026;-48
2021/01/05 09:30:47;;;;;;;33.28;13.52;;;1.90;99.90;;;;;;5038413;28;20083;-45
2021/01/05 09:33:14;;;;;;;30.48;14.32;;;1.90;99.90;;;;;;5041774;28;20562;-48
2021/01/05 09:35:39;;;;;;;37.65;12.98;;;1.90;99.90;;;;;;5031414;28;20041;-43
2021/01/05 09:38:08;;;;;;;34.30;15.77;;;1.90;99.90;;;;;;5041647;28;20070;-46
2021/01/05 09:40:35;;;;;;;32.03;15.30;;;1.90;99.90;;;;;;5042324;28;20028;-43
2021/01/05 09:43:01;;;;;;;34.85;16.08;;;1.90;99.90;;;;;;5037641;28;20029;-48
2021/01/05 09:45:26;;;;;;;29.23;13.98;;;1.90;99.90;;;;;;5037643;28;20195;-46
2021/01/05 09:48:05;;;;;;;34.53;14.60;;;1.90;99.90;;;;;;5035487;28;20076;-48
2021/01/05 09:50:31;;;;;;;32.47;12.15;;;1.90;99.90;;;;;;5040398;28;20114;-45
2021/01/05 09:52:56;;;;;;;34.17;13.80;;;1.90;99.90;;;;;;5037241;28;20064;-45
2021/01/05 09:55:24;;;;;;;33.92;13.20;;;2.00;99.90;;;;;;5039172;28;20037;-43
2021/01/05 09:57:50;;;;;;;27.90;12.75;;;2.00;99.90;;;;;;5034885;28;20030;-43
2021/01/05 10:00:15;;;;;;;25.42;12.73;;;2.00;99.90;;;;;;5035916;28;20037;-49
2021/01/05 10:02:41;;;;;;;31.13;14.77;;;2.00;99.90;;;;;;5034103;28;20451;-45
2021/01/05 10:05:07;;;;;;;28.98;12.45;;;2.00;99.90;;;;;;5039921;28;20037;-47
2021/01/05 10:07:32;;;;;;;34.88;15.90;;;2.00;99.90;;;;;;5038751;28;20032;-44
2021/01/05 10:09:58;;;;;;;31.23;12.65;;;2.00;99.90;;;;;;5038138;28;20690;-46
2021/01/05 10:12:24;;;;;;;31.15;13.73;;;2.00;99.90;;;;;;5038869;28;20029;-43
2021/01/05 10:14:49;;;;;;;28.25;12.55;;;2.00;99.90;;;;;;5032331;28;20490;-44
2021/01/05 10:17:14;;;;;;;30.70;13.80;;;2.10;99.90;;;;;;5035281;28;20057;-49
2021/01/05 10:19:40;;;;;;;29.20;11.55;;;2.10;99.90;;;;;;5034992;28;20025;-46
2021/01/05 10:22:05;;;;;;;30.92;13.15;;;2.10;99.90;;;;;;5035747;28;20211;-47
2021/01/05 10:24:31;;;;;;;36.97;14.07;;;2.10;99.90;;;;;;5036556;28;20500;-48
2021/01/05 10:26:56;;;;;;;30.23;11.88;;;2.10;99.90;;;;;;5032266;28;20033;-47
2021/01/05 10:29:23;;;;;;;32.67;11.70;;;2.10;99.90;;;;;;5032292;28;20025;-47
2021/01/05 10:31:49;;;;;;;30.48;13.68;;;2.10;99.90;;;;;;5032767;28;20037;-46
2021/01/05 10:34:19;;;;;;;27.48;12.02;;;2.20;99.90;;;;;;5037264;28;20033;-44
2021/01/05 10:36:49;;;;;;;33.35;13.55;;;2.20;99.90;;;;;;5041965;28;20036;-49
2021/01/05 10:39:14;;;;;;;25.65;12.30;;;2.20;99.90;;;;;;5040249;28;20078;-46
2021/01/05 10:41:43;;;;;;;32.33;12.88;;;2.20;99.90;;;;;;5043714;28;20143;-43
2021/01/05 10:44:11;;;;;;;28.95;12.88;;;2.20;99.90;;;;;;5039661;28;20021;-45
2021/01/05 10:46:37;;;;;;;33.10;15.48;;;2.20;99.90;;;;;;5034012;28;20049;-45
2021/01/05 10:49:03;;;;;;;31.17;12.50;;;2.20;99.90;;;;;;5040891;28;20033;-45
2021/01/05 10:51:29;;;;;;;34.60;13.85;;;2.20;99.90;;;;;;5040274;28;20042;-43
2021/01/05 10:53:55;;;;;;;28.08;11.45;;;2.30;99.90;;;;;;5068168;28;20037;-43
2021/01/05 10:56:21;;;;;;;32.50;14.30;;;2.30;99.90;;;;;;5030283;28;20037;-45
2021/01/05 10:58:46;;;;;;;29.65;12.95;;;2.30;99.90;;;;;;5039640;28;20032;-46
2021/01/05 11:01:12;;;;;;;31.30;13.95;;;2.20;99.90;;;;;;5034491;28;20032;-45
2021/01/05 11:03:38;;;;;;;28.25;12.55;;;2.30;99.90;;;;;;5039572;28;20152;-47
2021/01/05 11:06:05;;;;;;;25.08;11.15;;;2.30;99.90;;;;;;5041093;28;20484;-42
2021/01/05 11:08:31;;;;;;;34.17;14.57;;;2.30;99.90;;;;;;5041016;28;20029;-46
2021/01/05 11:10:56;;;;;;;30.02;13.32;;;2.20;99.90;;;;;;5035452;28;20037;-47
2021/01/05 11:13:22;;;;;;;32.63;14.00;;;2.20;99.90;;;;;;5040443;28;20392;-45
2021/01/05 11:15:48;;;;;;;42.83;16.35;;;2.30;99.90;;;;;;5035032;28;20033;-46
2021/01/05 11:18:14;;;;;;;28.73;12.10;;;2.30;99.90;;;;;;5037951;28;20025;-44
2021/01/05 11:20:41;;;;;;;25.77;11.05;;;2.30;99.90;;;;;;5035511;28;20029;-44
2021/01/05 11:23:08;;;;;;;33.22;13.00;;;2.30;99.90;;;;;;5038159;28;20036;-50
2021/01/05 11:25:34;;;;;;;28.83;13.00;;;2.40;99.90;;;;;;5030481;28;20501;-46
2021/01/05 11:28:00;;;;;;;33.60;10.80;;;2.40;99.90;;;;;;5033546;28;20060;-45
2021/01/05 11:30:26;;;;;;;29.30;11.25;;;2.40;99.90;;;;;;5029943;28;20482;-47
2021/01/05 11:32:52;;;;;;;25.75;12.25;;;2.50;99.90;;;;;;5035784;28;20041;-46
2021/01/05 11:35:18;;;;;;;30.45;13.82;;;2.50;99.90;;;;;;5037239;28;20398;-45
2021/01/05 11:37:43;;;;;;;25.52;11.65;;;2.50;99.90;;;;;;5035940;28;20056;-45
2021/01/05 11:40:10;;;;;;;27.27;11.65;;;2.40;99.90;;;;;;5040515;28;20471;-43
2021/01/05 11:42:36;;;;;;;28.63;13.07;;;2.40;99.90;;;;;;5039446;28;20040;-46
2021/01/05 11:45:03;;;;;;;20.50;9.63;;;2.40;99.90;;;;;;5037698;28;20026;-46
2021/01/05 11:47:30;;;;;;;29.48;11.18;;;2.40;99.90;;;;;;5043459;28;20033;-45
2021/01/05 11:49:56;;;;;;;25.08;10.07;;;2.40;99.90;;;;;;5035723;28;20033;-45
2021/01/05 11:52:21;;;;;;;23.23;9.35;;;2.50;99.90;;;;;;5035253;28;20083;-46
2021/01/05 11:54:47;;;;;;;21.00;8.95;;;2.50;99.90;;;;;;5035889;28;20041;-46
2021/01/05 11:57:12;;;;;;;26.73;10.98;;;2.50;99.90;;;;;;5038024;28;20051;-46
2021/01/05 11:59:38;;;;;;;20.60;10.00;;;2.50;99.90;;;;;;5034428;28;20403;-44
2021/01/05 12:02:03;;;;;;;23.30;10.75;;;2.40;99.90;;;;;;5037252;28;20471;-46
2021/01/05 12:04:29;;;;;;;23.27;11.98;;;2.50;99.90;;;;;;5040091;28;20104;-49
2021/01/05 12:06:56;;;;;;;23.17;10.25;;;2.50;99.90;;;;;;5039622;28;20074;-47
2021/01/05 12:09:27;;;;;;;22.42;10.30;;;2.40;99.90;;;;;;5040111;28;20045;-47
2021/01/05 12:12:01;;;;;;;19.00;10.52;;;2.40;99.90;;;;;;5034374;28;20048;-46
2021/01/05 12:14:26;;;;;;;21.50;9.93;;;2.50;99.90;;;;;;5032155;28;20025;-45
2021/01/05 12:16:52;;;;;;;29.27;11.80;;;2.40;99.90;;;;;;5033245;28;20033;-47
2021/01/05 12:19:23;;;;;;;29.75;11.45;;;2.40;99.90;;;;;;5044160;28;20096;-43
2021/01/05 12:21:50;;;;;;;22.00;11.10;;;2.30;99.90;;;;;;5040971;28;20037;-45
2021/01/05 12:24:18;;;;;;;25.00;11.23;;;2.30;99.90;;;;;;5033321;28;20029;-43
2021/01/05 12:26:45;;;;;;;21.38;12.07;;;2.30;99.90;;;;;;5033292;28;20068;-45
2021/01/05 12:29:23;;;;;;;19.45;9.57;;;2.20;99.90;;;;;;5038504;28;20029;-48
2021/01/05 12:32:07;;;;;;;20.27;9.77;;;2.20;99.90;;;;;;5039915;28;20040;-43
2021/01/05 12:34:36;;;;;;;22.95;9.45;;;2.20;99.90;;;;;;5035254;28;20115;-44
2021/01/05 12:37:04;;;;;;;22.67;9.52;;;2.20;99.90;;;;;;5045269;28;20128;-46
2021/01/05 12:39:31;;;;;;;20.50;10.65;;;2.20;99.90;;;;;;5037290;28;20152;-46
2021/01/05 12:42:08;;;;;;;21.77;9.43;;;2.20;99.90;;;;;;5036325;28;20047;-47
2021/01/05 12:44:34;;;;;;;21.27;11.43;;;2.20;99.90;;;;;;5031401;28;20026;-44
2021/01/05 12:46:59;;;;;;;20.45;9.98;;;2.20;99.90;;;;;;5043855;28;20068;-45
2021/01/05 12:49:25;;;;;;;17.30;8.27;;;2.20;99.90;;;;;;5057636;28;20206;-48
2021/01/05 12:51:51;;;;;;;17.55;8.68;;;2.20;99.90;;;;;;5044898;28;20095;-44